createdAt,value
2019-05-16T00:02:01.291Z,9.17
2019-05-16T00:04:30.829Z,10.80
2019-05-16T00:07:00.314Z,11.80
2019-05-16T00:09:29.878Z,11.17
2019-05-16T00:11:59.555Z,9.70
2019-05-16T00:14:29.130Z,13.00
2019-05-16T00:16:58.957Z,10.13
2019-05-16T00:19:28.874Z,10.23
2019-05-16T00:21:58.554Z,12.10
2019-05-16T00:24:29.147Z,10.37
2019-05-16T00:26:58.755Z,11.73
2019-05-16T00:29:28.315Z,10.63
2019-05-16T00:31:58.079Z,11.17
2019-05-16T00:34:28.034Z,9.40
2019-05-16T00:36:58.288Z,9.60
2019-05-16T00:39:28.202Z,9.13
2019-05-16T00:41:58.388Z,10.60
2019-05-16T00:44:28.236Z,9.20
2019-05-16T00:46:58.114Z,9.80
2019-05-16T00:49:28.187Z,10.50
2019-05-16T00:51:58.501Z,8.93
2019-05-16T00:54:29.116Z,10.27
2019-05-16T00:57:00.661Z,11.90
2019-05-16T00:59:30.700Z,12.77
2019-05-16T01:02:00.200Z,11.43
2019-05-16T01:04:29.693Z,14.83
2019-05-16T01:07:01.679Z,13.33
2019-05-16T01:09:30.524Z,12.00
2019-05-16T01:12:00.052Z,22.70
2019-05-16T01:14:29.546Z,13.30
2019-05-16T01:16:59.039Z,14.20
2019-05-16T01:19:28.609Z,13.90
2019-05-16T01:21:58.962Z,12.67
2019-05-16T01:24:30.261Z,11.40
2019-05-16T01:26:59.753Z,12.60
2019-05-16T01:29:29.254Z,13.27
2019-05-16T01:31:59.112Z,14.50
2019-05-16T01:34:28.938Z,12.00
2019-05-16T01:36:58.970Z,13.23
2019-05-16T01:39:28.885Z,14.33
2019-05-16T01:41:58.807Z,16.87
2019-05-16T01:44:28.793Z,13.60
2019-05-16T01:46:58.672Z,13.57
2019-05-16T01:49:28.157Z,13.77
2019-05-16T01:51:59.014Z,13.37
2019-05-16T01:54:28.498Z,16.43
2019-05-16T01:56:59.492Z,14.20
2019-05-16T01:59:29.350Z,13.43
2019-05-16T02:02:00.924Z,14.03
2019-05-16T02:04:30.134Z,12.83
2019-05-16T02:06:59.718Z,10.73
2019-05-16T02:09:29.415Z,12.63
2019-05-16T02:11:59.072Z,12.43
2019-05-16T02:14:28.562Z,12.27
2019-05-16T02:16:58.238Z,12.17
2019-05-16T02:19:28.056Z,11.17
2019-05-16T02:21:59.633Z,11.57
2019-05-16T02:24:28.701Z,12.43
2019-05-16T02:26:58.896Z,12.37
2019-05-16T02:29:29.874Z,11.57
2019-05-16T02:32:02.018Z,15.97
2019-05-16T02:34:30.973Z,11.70
2019-05-16T02:37:18.429Z,11.00
2019-05-16T02:39:31.743Z,11.30
2019-05-16T02:42:01.402Z,8.73
2019-05-16T02:44:31.825Z,10.93
2019-05-16T02:47:02.020Z,11.53
2019-05-16T02:49:36.698Z,11.00
2019-05-16T02:52:06.400Z,11.40
2019-05-16T02:54:35.956Z,11.23
2019-05-16T02:57:05.521Z,11.70
2019-05-16T02:59:35.090Z,10.17
2019-05-16T03:02:06.292Z,8.33
2019-05-16T03:04:39.937Z,9.17
2019-05-16T03:07:07.528Z,10.90
2019-05-16T03:09:40.871Z,7.93
2019-05-16T03:12:10.706Z,9.03
2019-05-16T03:14:41.855Z,8.40
2019-05-16T03:17:13.173Z,8.97
2019-05-16T03:19:44.361Z,10.03
2019-05-16T03:22:16.845Z,10.30
2019-05-16T03:24:46.443Z,12.90
2019-05-16T03:27:15.935Z,14.73
2019-05-16T03:29:45.354Z,10.87
2019-05-16T03:32:14.824Z,10.10
2019-05-16T03:34:44.713Z,10.20
2019-05-16T03:37:15.046Z,11.20
2019-05-16T03:39:44.859Z,8.90
2019-05-16T03:42:15.547Z,10.27
2019-05-16T03:44:45.114Z,11.40
2019-05-16T03:47:14.856Z,11.63
2019-05-16T03:49:46.613Z,10.67
2019-05-16T03:52:15.928Z,10.50
2019-05-16T03:54:45.542Z,13.63
2019-05-16T03:57:15.011Z,9.87
2019-05-16T03:59:44.500Z,12.57
2019-05-16T04:02:13.946Z,12.43
2019-05-16T04:04:43.456Z,12.73
2019-05-16T04:07:13.146Z,12.20
2019-05-16T04:09:42.768Z,13.13
2019-05-16T04:12:13.637Z,19.80
2019-05-16T04:14:43.418Z,24.10
2019-05-16T04:17:12.929Z,18.13
2019-05-16T04:19:42.608Z,18.97
2019-05-16T04:22:15.627Z,14.00
2019-05-16T04:24:51.147Z,13.30
2019-05-16T04:27:21.445Z,13.67
2019-05-16T04:29:51.635Z,17.07
2019-05-16T04:32:21.287Z,14.23
2019-05-16T04:34:51.331Z,11.93
2019-05-16T04:37:22.728Z,12.70
2019-05-16T04:39:52.397Z,13.13
2019-05-16T04:42:26.707Z,13.73
2019-05-16T04:44:56.203Z,9.93
2019-05-16T04:47:25.883Z,7.83
2019-05-16T04:50:02.203Z,9.97
2019-05-16T04:52:31.785Z,9.77
2019-05-16T04:55:01.392Z,9.60
2019-05-16T04:57:31.490Z,12.67
2019-05-16T05:00:03.128Z,14.40
2019-05-16T05:02:32.758Z,9.33
2019-05-16T05:05:02.462Z,9.63
2019-05-16T05:07:32.227Z,11.13
2019-05-16T05:15:50.912Z,9.47
2019-05-16T05:18:21.420Z,11.57
2019-05-16T05:20:52.342Z,10.20
2019-05-16T05:23:23.843Z,14.13
2019-05-16T05:25:53.263Z,18.17
2019-05-16T05:28:23.154Z,11.60
2019-05-16T05:30:52.809Z,12.13
2019-05-16T05:33:22.316Z,10.97
2019-05-16T05:35:51.804Z,13.23
2019-05-16T05:38:23.005Z,11.60
2019-05-16T05:40:57.174Z,15.20
2019-05-16T05:43:43.653Z,11.00
2019-05-16T05:46:00.784Z,12.13
2019-05-16T05:48:31.082Z,10.47
2019-05-16T05:51:00.959Z,9.20
2019-05-16T05:53:30.485Z,8.60
2019-05-16T05:56:00.738Z,8.77
2019-05-16T05:58:31.023Z,10.53
2019-05-16T06:01:00.992Z,6.73
2019-05-16T06:03:32.927Z,7.87
2019-05-16T06:06:02.184Z,7.03
2019-05-16T06:08:31.856Z,6.83
2019-05-16T06:11:01.272Z,7.73
2019-05-16T06:13:31.224Z,5.27
2019-05-16T06:16:00.724Z,5.17
2019-05-16T06:18:30.703Z,7.33
2019-05-16T06:21:00.725Z,7.33
2019-05-16T06:23:31.357Z,7.50
2019-05-16T06:26:01.055Z,5.80
2019-05-16T06:28:31.050Z,8.10
2019-05-16T06:31:02.291Z,7.67
2019-05-16T06:33:33.596Z,7.67
2019-05-16T06:36:04.814Z,7.63
2019-05-16T06:38:34.485Z,7.57
2019-05-16T06:41:04.118Z,7.00
2019-05-16T06:43:33.714Z,7.33
2019-05-16T06:46:03.333Z,7.53
2019-05-16T06:48:32.956Z,12.80
2019-05-16T06:51:03.239Z,8.80
2019-05-16T06:53:32.901Z,8.13
2019-05-16T06:56:02.495Z,6.67
2019-05-16T06:58:44.739Z,8.27
2019-05-16T07:01:03.873Z,11.73
2019-05-16T07:03:33.465Z,11.00
2019-05-16T07:06:03.117Z,9.37
2019-05-16T07:08:32.927Z,9.17
2019-05-16T07:11:11.246Z,9.43
2019-05-16T07:13:52.023Z,10.03
2019-05-16T07:16:21.084Z,9.03
2019-05-16T07:18:50.808Z,9.50
2019-05-16T07:21:20.433Z,9.47
2019-05-16T07:23:51.144Z,8.27
2019-05-16T07:26:21.012Z,13.20
2019-05-16T07:28:51.633Z,10.90
2019-05-16T07:31:22.525Z,11.40
2019-05-16T07:33:53.547Z,14.80
2019-05-16T07:36:24.340Z,10.90
2019-05-16T07:38:53.967Z,13.73
2019-05-16T07:41:23.534Z,14.27
2019-05-16T07:43:53.197Z,12.77
2019-05-16T07:46:22.850Z,14.50
2019-05-16T07:48:52.480Z,13.13
2019-05-16T07:51:22.060Z,13.00
2019-05-16T07:53:53.389Z,15.10
2019-05-16T07:56:22.890Z,15.87
2019-05-16T07:58:56.078Z,16.33
2019-05-16T08:01:27.200Z,13.97
2019-05-16T08:03:56.730Z,14.90
2019-05-16T08:06:26.253Z,13.93
2019-05-16T08:08:56.002Z,13.47
2019-05-16T08:11:26.740Z,14.83
2019-05-16T08:13:56.258Z,14.60
2019-05-16T08:16:25.845Z,14.23
2019-05-16T08:18:55.420Z,14.90
2019-05-16T08:21:36.619Z,14.80
2019-05-16T08:24:14.572Z,11.40
2019-05-16T08:26:43.148Z,14.37
2019-05-16T08:29:13.489Z,16.23
2019-05-16T08:31:43.332Z,14.50
2019-05-16T08:34:13.168Z,13.20
2019-05-16T08:36:42.667Z,17.73
2019-05-16T08:39:12.279Z,17.30
2019-05-16T08:44:13.157Z,13.63
2019-05-16T08:46:42.788Z,17.10
2019-05-16T08:49:12.794Z,15.93
2019-05-16T08:51:42.854Z,14.90
2019-05-16T08:54:13.645Z,19.23
2019-05-16T08:56:44.598Z,22.00
2019-05-16T08:59:14.403Z,22.23
2019-05-16T09:04:15.278Z,19.20
2019-05-16T09:06:44.843Z,17.97
2019-05-16T09:09:34.022Z,18.80
2019-05-16T09:10:25.131Z,24.27
2019-05-16T09:10:29.683Z,16.23
2019-05-16T09:11:48.632Z,17.93
2019-05-16T09:14:17.358Z,19.90
2019-05-16T09:16:49.275Z,19.70
2019-05-16T09:19:18.545Z,22.10
2019-05-16T09:21:49.135Z,23.40
2019-05-16T09:24:18.774Z,17.73
2019-05-16T09:26:48.341Z,18.27
2019-05-16T09:29:17.948Z,17.63
2019-05-16T09:32:07.213Z,20.57
2019-05-16T09:34:18.736Z,20.93
2019-05-16T09:36:48.374Z,16.20
2019-05-16T09:39:18.230Z,20.93
2019-05-16T09:41:54.419Z,19.43
2019-05-16T09:44:19.006Z,17.90
2019-05-16T09:46:48.614Z,17.40
2019-05-16T09:49:24.285Z,16.33
2019-05-16T09:51:49.703Z,23.90
2019-05-16T09:54:19.275Z,14.23
2019-05-16T09:56:53.121Z,13.50
2019-05-16T09:59:22.669Z,13.90
2019-05-16T10:01:57.127Z,11.37
2019-05-16T10:04:27.597Z,11.97
2019-05-16T10:06:57.430Z,12.47
2019-05-16T10:09:41.354Z,12.27
2019-05-16T10:12:11.315Z,13.17
2019-05-16T10:14:37.793Z,14.30
2019-05-16T10:17:08.109Z,12.80
2019-05-16T10:19:37.847Z,12.67
2019-05-16T10:22:07.563Z,17.73
2019-05-16T10:24:37.589Z,19.87
2019-05-16T10:27:07.470Z,19.87
2019-05-16T10:29:37.791Z,20.23
2019-05-16T10:32:07.988Z,13.73
2019-05-16T10:34:39.607Z,18.63
2019-05-16T10:37:13.052Z,14.90
2019-05-16T10:39:42.879Z,17.60
2019-05-16T10:42:27.232Z,17.83
2019-05-16T10:44:48.007Z,15.67
2019-05-16T10:47:17.208Z,15.10
2019-05-16T10:49:52.405Z,12.30
2019-05-16T10:52:22.022Z,15.30
2019-05-16T10:54:57.533Z,15.13
2019-05-16T10:57:23.118Z,17.73
2019-05-16T11:00:05.352Z,16.97
2019-05-16T11:02:27.400Z,21.53
2019-05-16T11:05:20.618Z,17.60
2019-05-16T11:07:30.886Z,18.13
2019-05-16T11:10:03.380Z,23.47
2019-05-16T11:12:46.127Z,21.70
2019-05-16T11:15:03.013Z,22.47
2019-05-16T11:17:32.532Z,24.80
2019-05-16T11:20:02.103Z,20.80
2019-05-16T11:22:31.775Z,20.50
2019-05-16T11:25:01.349Z,20.63
2019-05-16T11:27:30.943Z,23.90
2019-05-16T11:30:00.374Z,25.73
2019-05-16T11:32:29.879Z,21.70
2019-05-16T11:34:59.402Z,23.80
2019-05-16T11:37:28.947Z,29.53
2019-05-16T11:39:58.541Z,21.43
2019-05-16T11:42:28.324Z,16.57
2019-05-16T11:44:58.162Z,11.30
2019-05-16T11:47:27.950Z,13.47
2019-05-16T11:49:57.516Z,10.07
2019-05-16T11:52:30.288Z,18.87
2019-05-16T11:54:59.945Z,9.57
2019-05-16T11:57:29.529Z,7.87
2019-05-16T11:59:59.083Z,8.73
2019-05-16T12:02:28.665Z,8.07
2019-05-16T12:04:58.298Z,8.27
2019-05-16T12:07:33.383Z,4.63
2019-05-16T12:09:59.449Z,4.13
2019-05-16T12:12:29.061Z,4.33
2019-05-16T12:14:58.639Z,4.33
2019-05-16T12:17:28.303Z,4.83
2019-05-16T12:19:58.579Z,4.47
2019-05-16T12:22:28.068Z,5.87
2019-05-16T12:25:00.003Z,7.03
2019-05-16T12:27:32.456Z,4.47
2019-05-16T12:30:01.114Z,6.37
2019-05-16T12:32:30.800Z,5.87
2019-05-16T12:35:00.543Z,4.97
2019-05-16T12:37:30.316Z,6.87
2019-05-16T12:39:59.860Z,5.20
2019-05-16T12:42:29.472Z,5.73
2019-05-16T12:44:59.043Z,4.70
2019-05-16T12:47:28.694Z,4.57
2019-05-16T12:49:58.377Z,4.63
2019-05-16T12:52:32.217Z,5.23
2019-05-16T12:55:01.896Z,4.67
2019-05-16T12:57:48.939Z,4.13
2019-05-16T13:00:19.230Z,4.07
2019-05-16T13:02:49.113Z,3.70
2019-05-16T13:05:18.793Z,3.90
2019-05-16T13:07:48.395Z,5.30
2019-05-16T13:10:18.688Z,4.70
2019-05-16T13:12:48.477Z,5.07
2019-05-16T13:15:20.240Z,3.07
2019-05-16T13:17:49.923Z,3.37
2019-05-16T13:20:19.555Z,7.27
2019-05-16T13:22:49.273Z,4.17
2019-05-16T13:25:20.372Z,4.33
2019-05-16T13:27:50.052Z,5.90
2019-05-16T13:30:19.705Z,5.90
2019-05-16T13:32:49.296Z,4.33
2019-05-16T13:35:29.683Z,6.93
2019-05-16T13:37:59.451Z,7.33
2019-05-16T13:40:30.813Z,7.03
2019-05-16T13:43:00.346Z,7.83
2019-05-16T13:45:30.008Z,8.00
2019-05-16T13:48:17.120Z,8.53
2019-05-16T13:50:37.335Z,8.70
2019-05-16T13:53:07.739Z,10.27
2019-05-16T13:55:38.001Z,7.67
2019-05-16T13:58:07.901Z,11.63
2019-05-16T14:00:37.829Z,8.73
2019-05-16T14:03:08.049Z,8.87
2019-05-16T14:05:40.102Z,7.50
2019-05-16T14:08:09.579Z,9.00
2019-05-16T14:11:00.734Z,8.30
2019-05-16T14:13:27.916Z,10.27
2019-05-16T14:15:58.090Z,8.93
2019-05-16T14:18:27.688Z,8.90
2019-05-16T14:20:57.471Z,9.00
2019-05-16T14:23:28.388Z,12.93
2019-05-16T14:25:59.911Z,9.87
2019-05-16T14:28:29.749Z,8.53
2019-05-16T14:30:59.204Z,10.33
2019-05-16T14:33:28.755Z,9.33
2019-05-16T14:35:58.349Z,9.17
2019-05-16T14:38:28.041Z,8.23
2019-05-16T14:40:57.682Z,8.70
2019-05-16T14:43:28.777Z,13.10
2019-05-16T14:45:58.239Z,10.27
2019-05-16T14:48:28.009Z,8.43
2019-05-16T14:50:57.888Z,12.13
2019-05-16T14:53:28.393Z,15.00
2019-05-16T14:55:58.225Z,11.93
2019-05-16T14:58:30.721Z,12.13
2019-05-16T15:00:59.241Z,9.63
2019-05-16T15:03:30.708Z,11.13
2019-05-16T15:06:00.237Z,12.13
2019-05-16T15:08:30.151Z,9.97
2019-05-16T15:10:59.676Z,9.13
2019-05-16T15:13:29.331Z,7.73
2019-05-16T15:15:58.990Z,8.40
2019-05-16T15:18:28.844Z,11.30
2019-05-16T15:20:58.364Z,9.70
2019-05-16T15:23:31.340Z,9.17
2019-05-16T15:27:08.657Z,10.07
2019-05-16T15:28:40.844Z,7.23
2019-05-16T15:31:12.075Z,10.27
2019-05-16T15:33:41.791Z,11.70
2019-05-16T15:36:11.419Z,13.67
2019-05-16T15:38:41.163Z,8.07
2019-05-16T15:41:10.780Z,11.73
2019-05-16T15:43:40.579Z,10.13
2019-05-16T15:46:10.863Z,9.33
2019-05-16T15:48:41.289Z,11.03
2019-05-16T15:51:10.952Z,10.63
2019-05-16T15:53:40.725Z,13.03
2019-05-16T15:56:10.815Z,11.57
2019-05-16T15:58:40.759Z,13.53
2019-05-16T16:01:11.634Z,12.20
2019-05-16T16:03:41.482Z,14.60
2019-05-16T16:06:11.442Z,8.70
2019-05-16T16:08:46.740Z,6.20
2019-05-16T16:11:44.638Z,8.27
2019-05-16T16:13:53.470Z,6.23
2019-05-16T16:16:23.097Z,7.90
2019-05-16T16:18:52.869Z,8.07
2019-05-16T16:21:22.347Z,9.30
2019-05-16T16:23:51.845Z,8.07
2019-05-16T16:26:21.517Z,8.53
2019-05-16T16:28:51.150Z,9.93
2019-05-16T16:31:27.474Z,8.47
2019-05-16T16:33:58.560Z,8.50
2019-05-16T16:36:28.247Z,8.13
2019-05-16T16:38:59.565Z,8.33
2019-05-16T16:41:29.240Z,7.60
2019-05-16T16:43:58.915Z,8.77
2019-05-16T16:46:46.727Z,9.33
2019-05-16T16:49:07.515Z,7.97
2019-05-16T16:51:37.670Z,8.97
2019-05-16T16:54:07.753Z,8.23
2019-05-16T16:56:37.448Z,7.43
2019-05-16T16:59:07.227Z,9.27
2019-05-16T17:01:37.335Z,11.87
2019-05-16T17:04:08.572Z,10.83
2019-05-16T17:06:38.010Z,11.73
2019-05-16T17:09:07.869Z,15.13
2019-05-16T17:11:37.464Z,9.63
2019-05-16T17:14:07.069Z,11.00
2019-05-16T17:16:37.715Z,9.73
2019-05-16T17:19:07.876Z,9.77
2019-05-16T17:21:37.393Z,11.03
2019-05-16T17:24:06.945Z,9.97
2019-05-16T17:26:37.817Z,12.77
2019-05-16T17:29:07.617Z,12.37
2019-05-16T17:31:37.159Z,12.10
2019-05-16T17:34:08.312Z,9.20
2019-05-16T17:36:38.208Z,16.03
2019-05-16T17:39:07.968Z,13.27
2019-05-16T17:41:39.206Z,11.47
2019-05-16T17:44:08.775Z,7.00
2019-05-16T17:46:40.987Z,5.77
2019-05-16T17:49:09.906Z,7.23
2019-05-16T17:51:39.548Z,10.40
2019-05-16T17:54:09.176Z,12.00
2019-05-16T17:56:40.355Z,9.30
2019-05-16T17:59:09.990Z,9.83
2019-05-16T18:01:39.631Z,12.13
2019-05-16T18:04:09.294Z,11.77
2019-05-16T18:06:40.077Z,10.47
2019-05-16T18:09:09.764Z,7.70
2019-05-16T18:11:40.365Z,8.63
2019-05-16T18:14:10.044Z,10.80
2019-05-16T18:16:52.555Z,8.77
2019-05-16T18:19:11.969Z,7.30
2019-05-16T18:21:41.477Z,10.47
2019-05-16T18:24:11.039Z,6.97
2019-05-16T18:26:40.638Z,5.73
2019-05-16T18:29:10.133Z,6.43
2019-05-16T18:31:39.624Z,6.50
2019-05-16T18:34:09.208Z,7.90
2019-05-16T18:36:39.665Z,8.07
2019-05-16T18:39:09.260Z,9.63
2019-05-16T18:41:38.903Z,8.57
2019-05-16T18:44:08.466Z,6.57
2019-05-16T18:46:39.470Z,8.73
2019-05-16T18:49:10.873Z,8.23
2019-05-16T18:51:41.377Z,7.27
2019-05-16T18:54:13.042Z,8.80
2019-05-16T18:56:47.205Z,10.10
2019-05-16T18:59:17.031Z,8.07
2019-05-16T19:01:47.809Z,7.27
2019-05-16T19:04:17.813Z,8.07
2019-05-16T19:06:49.681Z,10.37
2019-05-16T19:09:19.397Z,20.73
2019-05-16T19:11:48.896Z,9.90
2019-05-16T19:14:20.895Z,8.07
2019-05-16T19:16:50.466Z,9.97
2019-05-16T19:19:21.659Z,8.00
2019-05-16T19:21:51.304Z,8.13
2019-05-16T19:24:20.940Z,13.40
2019-05-16T19:26:50.509Z,12.30
2019-05-16T19:29:20.348Z,62.63
2019-05-16T19:31:50.680Z,26.47
2019-05-16T19:34:20.591Z,26.00
2019-05-16T19:36:50.470Z,13.80
2019-05-16T19:39:20.332Z,10.47
2019-05-16T19:41:50.012Z,9.20
2019-05-16T19:44:20.464Z,6.63
2019-05-16T19:46:51.492Z,8.30
2019-05-16T19:49:21.136Z,10.63
2019-05-16T19:51:50.788Z,13.20
2019-05-16T19:54:20.451Z,7.93
2019-05-16T19:56:50.031Z,8.20
2019-05-16T19:59:19.805Z,11.07
2019-05-16T20:01:49.312Z,22.50
2019-05-16T20:04:18.900Z,25.50
2019-05-16T20:06:48.464Z,12.67
2019-05-16T20:09:18.264Z,20.57
2019-05-16T20:11:47.840Z,21.47
2019-05-16T20:14:19.662Z,26.43
2019-05-16T20:16:48.850Z,26.17
2019-05-16T20:19:20.895Z,26.77
2019-05-16T20:21:50.594Z,15.63
2019-05-16T20:24:20.167Z,21.23
2019-05-16T20:26:49.902Z,19.27
2019-05-16T20:29:19.642Z,39.87
2019-05-16T20:31:49.314Z,27.93
2019-05-16T20:34:18.980Z,16.60
2019-05-16T20:36:48.557Z,39.10
2019-05-16T20:39:18.177Z,11.30
2019-05-16T20:41:47.702Z,16.23
2019-05-16T20:44:17.387Z,13.27
2019-05-16T20:46:49.703Z,7.77
2019-05-16T20:49:18.470Z,22.90
2019-05-16T20:51:50.000Z,12.70
2019-05-16T20:54:20.238Z,25.07
2019-05-16T20:56:49.796Z,10.30
2019-05-16T20:59:19.403Z,9.77
2019-05-16T21:01:49.205Z,16.23
2019-05-16T21:04:19.023Z,14.20
2019-05-16T21:07:00.340Z,12.47
2019-05-16T21:10:20.357Z,13.30
2019-05-16T21:12:50.026Z,12.27
2019-05-16T21:15:26.357Z,10.00
2019-05-16T21:17:56.818Z,7.73
2019-05-16T21:20:29.843Z,9.63
2019-05-16T21:22:59.299Z,14.80
2019-05-16T21:25:28.987Z,11.83
2019-05-16T21:27:58.752Z,11.47
2019-05-16T21:30:28.400Z,8.90
2019-05-16T21:32:58.095Z,8.37
2019-05-16T21:35:27.761Z,9.47
2019-05-16T21:37:57.808Z,11.37
2019-05-16T21:40:27.898Z,9.80
2019-05-16T21:42:58.802Z,8.83
2019-05-16T21:45:28.863Z,8.00
2019-05-16T21:47:58.609Z,6.73
2019-05-16T21:50:28.393Z,9.77
2019-05-16T21:52:58.180Z,10.70
2019-05-16T21:55:30.026Z,9.80
2019-05-16T21:58:00.272Z,11.80
2019-05-16T22:00:43.350Z,9.53
2019-05-16T22:03:14.720Z,8.37
2019-05-16T22:05:46.503Z,9.90
2019-05-16T22:08:16.786Z,9.60
2019-05-16T22:10:47.421Z,9.53
2019-05-16T22:13:17.424Z,9.83
2019-05-16T22:15:47.092Z,8.83
2019-05-16T22:18:16.815Z,9.37
2019-05-16T22:20:48.723Z,9.13
2019-05-16T22:23:17.881Z,9.10
2019-05-16T22:25:49.281Z,9.53
2019-05-16T22:28:19.069Z,11.30
2019-05-16T22:30:49.790Z,10.80
2019-05-16T22:33:19.360Z,9.40
2019-05-16T22:35:49.622Z,9.33
2019-05-16T22:38:19.664Z,11.33
2019-05-16T22:40:49.282Z,11.20
2019-05-16T22:43:18.840Z,9.43
2019-05-16T22:45:48.332Z,10.90
2019-05-16T22:48:18.137Z,11.33
2019-05-16T22:50:47.700Z,9.93
2019-05-16T22:53:17.413Z,12.80
2019-05-16T22:55:47.798Z,13.20
2019-05-16T22:58:17.857Z,9.47
2019-05-16T23:00:47.581Z,11.20
2019-05-16T23:03:17.527Z,10.90
2019-05-16T23:05:47.565Z,9.13
2019-05-16T23:08:17.104Z,12.80
2019-05-16T23:10:46.749Z,12.30
2019-05-16T23:13:16.987Z,12.57
2019-05-16T23:15:46.767Z,12.17
2019-05-16T23:18:17.248Z,10.70
2019-05-16T23:20:47.411Z,11.00
2019-05-16T23:23:18.021Z,10.83
2019-05-16T23:25:47.523Z,13.20
2019-05-16T23:28:17.031Z,10.90
2019-05-16T23:30:47.122Z,12.27
2019-05-16T23:33:16.620Z,11.77
2019-05-16T23:35:46.862Z,10.17
2019-05-16T23:38:20.047Z,11.40
2019-05-16T23:40:47.938Z,11.90
2019-05-16T23:43:17.519Z,10.23
2019-05-16T23:45:47.090Z,12.70
2019-05-16T23:48:16.735Z,10.93
2019-05-16T23:50:47.511Z,11.20
2019-05-16T23:53:17.305Z,10.27
2019-05-16T23:55:47.229Z,10.50
2019-05-16T23:58:16.996Z,11.67
